createdAt,value
2023-04-07T00:00:26.915Z,2.15
2023-04-07T00:02:54.211Z,2.18
2023-04-07T00:05:21.281Z,2.21
2023-04-07T00:07:55.853Z,2.21
2023-04-07T00:10:25.402Z,2.18
2023-04-07T00:12:52.512Z,2.18
2023-04-07T00:15:19.397Z,2.16
2023-04-07T00:17:46.209Z,2.16
2023-04-07T00:20:13.040Z,2.12
2023-04-07T00:22:39.816Z,2.13
2023-04-07T00:25:07.345Z,2.15
2023-04-07T00:27:34.112Z,2.16
2023-04-07T00:30:00.832Z,2.15
2023-04-07T00:32:27.642Z,2.14
2023-04-07T00:34:54.436Z,2.10
2023-04-07T00:37:21.636Z,2.08
2023-04-07T00:39:48.439Z,2.07
2023-04-07T00:42:15.528Z,2.08
2023-04-07T00:44:42.328Z,2.08
2023-04-07T00:47:09.266Z,2.09
2023-04-07T00:49:37.484Z,2.09
2023-04-07T00:52:06.560Z,2.09
2023-04-07T00:54:33.405Z,2.10
2023-04-07T00:57:01.721Z,2.08
2023-04-07T00:59:31.274Z,2.07
2023-04-07T01:02:03.565Z,2.05
2023-04-07T01:04:54.002Z,2.06
2023-04-07T01:07:27.497Z,2.08
2023-04-07T01:10:06.598Z,2.14
2023-04-07T01:12:54.669Z,2.19
2023-04-07T01:15:27.749Z,2.19
2023-04-07T01:18:07.502Z,2.20
2023-04-07T01:20:36.233Z,2.18
2023-04-07T01:23:07.018Z,2.12
2023-04-07T01:25:50.143Z,2.11
2023-04-07T01:28:36.030Z,2.13
2023-04-07T01:31:05.156Z,2.13
2023-04-07T01:33:36.026Z,2.15
2023-04-07T01:36:05.401Z,2.18
2023-04-07T01:38:34.166Z,2.19
2023-04-07T01:41:02.413Z,2.18
2023-04-07T01:43:31.232Z,2.17
2023-04-07T01:45:59.232Z,2.18
2023-04-07T01:48:26.966Z,2.20
2023-04-07T01:50:54.910Z,2.21
2023-04-07T01:53:23.220Z,2.21
2023-04-07T01:55:50.080Z,2.21
2023-04-07T01:58:16.953Z,2.21
2023-04-07T02:00:44.177Z,2.21
2023-04-07T02:03:21.708Z,2.21
2023-04-07T02:05:52.300Z,2.20
2023-04-07T02:08:24.461Z,2.24
2023-04-07T02:10:51.879Z,2.28
2023-04-07T02:13:20.796Z,2.30
2023-04-07T02:15:50.492Z,2.28
2023-04-07T02:18:20.141Z,2.25
2023-04-07T02:20:48.959Z,2.19
2023-04-07T02:23:16.426Z,2.13
2023-04-07T02:25:43.514Z,2.11
2023-04-07T02:28:10.350Z,2.11
2023-04-07T02:30:37.368Z,2.13
2023-04-07T02:33:04.528Z,2.17
2023-04-07T02:35:31.430Z,2.19
2023-04-07T02:37:58.170Z,2.16
2023-04-07T02:40:24.910Z,2.15
2023-04-07T02:42:53.461Z,2.11
2023-04-07T02:45:22.962Z,2.07
2023-04-07T02:47:49.807Z,2.04
2023-04-07T02:50:17.889Z,2.06
2023-04-07T02:52:44.694Z,2.07
2023-04-07T02:55:13.677Z,2.08
2023-04-07T02:57:40.760Z,2.12
2023-04-07T03:00:12.640Z,2.16
2023-04-07T03:02:54.791Z,2.14
2023-04-07T03:05:22.029Z,2.14
2023-04-07T03:07:48.860Z,2.13
2023-04-07T03:10:15.928Z,2.12
2023-04-07T03:12:43.847Z,2.13
2023-04-07T03:15:11.476Z,2.15
2023-04-07T03:17:39.520Z,2.17
2023-04-07T03:20:07.683Z,2.21
2023-04-07T03:22:35.163Z,2.23
2023-04-07T03:25:02.023Z,2.25
2023-04-07T03:27:28.756Z,2.24
2023-04-07T03:29:56.291Z,2.22
2023-04-07T03:32:23.859Z,2.19
2023-04-07T03:34:50.810Z,2.20
2023-04-07T03:37:17.822Z,2.18
2023-04-07T03:39:45.739Z,2.18
2023-04-07T03:42:23.277Z,2.16
2023-04-07T03:44:51.339Z,2.14
2023-04-07T03:47:18.356Z,2.10
2023-04-07T03:49:49.437Z,2.10
2023-04-07T03:52:16.356Z,2.07
2023-04-07T03:54:45.329Z,2.08
2023-04-07T03:57:13.585Z,2.12
2023-04-07T03:59:43.408Z,2.13
2023-04-07T04:02:11.147Z,2.17
2023-04-07T04:04:38.392Z,2.20
2023-04-07T04:07:05.916Z,2.21
2023-04-07T04:09:38.109Z,2.19
2023-04-07T04:12:05.579Z,2.18
2023-04-07T04:14:33.156Z,2.18
2023-04-07T04:17:01.282Z,2.17
2023-04-07T04:19:37.114Z,2.19
2023-04-07T04:22:10.935Z,2.24
2023-04-07T04:24:42.940Z,2.27
2023-04-07T04:27:09.848Z,2.26
2023-04-07T04:29:37.161Z,2.23
2023-04-07T04:32:05.431Z,2.18
2023-04-07T04:34:32.306Z,2.17
2023-04-07T04:36:59.444Z,2.19
2023-04-07T04:39:26.588Z,2.21
2023-04-07T04:41:53.720Z,2.20
2023-04-07T04:44:22.444Z,2.24
2023-04-07T04:46:50.850Z,2.27
2023-04-07T04:49:19.002Z,2.27
2023-04-07T04:51:46.594Z,2.28
2023-04-07T04:54:17.061Z,2.26
2023-04-07T04:56:44.547Z,2.29
2023-04-07T04:59:11.661Z,2.35
2023-04-07T05:01:43.281Z,2.39
2023-04-07T05:04:13.079Z,2.40
2023-04-07T05:06:44.918Z,2.37
2023-04-07T05:09:12.727Z,2.34
2023-04-07T05:11:43.564Z,2.29
2023-04-07T05:14:10.508Z,2.28
2023-04-07T05:16:39.749Z,2.30
2023-04-07T05:19:06.956Z,2.31
2023-04-07T05:21:33.912Z,2.34
2023-04-07T05:24:02.693Z,2.37
2023-04-07T05:26:30.502Z,2.40
2023-04-07T05:28:57.812Z,2.44
2023-04-07T05:31:25.070Z,2.43
2023-04-07T05:33:53.564Z,2.42
2023-04-07T05:36:22.075Z,2.42
2023-04-07T05:38:51.651Z,2.45
2023-04-07T05:41:19.105Z,2.46
2023-04-07T05:43:46.013Z,2.51
2023-04-07T05:46:14.443Z,2.53
2023-04-07T05:48:48.114Z,2.51
2023-04-07T05:51:15.790Z,2.53
2023-04-07T05:53:42.883Z,2.54
2023-04-07T05:56:10.599Z,2.51
2023-04-07T05:58:46.340Z,2.50
2023-04-07T06:01:13.702Z,2.50
2023-04-07T06:03:41.369Z,2.53
2023-04-07T06:06:15.579Z,2.57
2023-04-07T06:08:42.613Z,2.59
2023-04-07T06:11:09.354Z,2.63
2023-04-07T06:13:36.345Z,2.66
2023-04-07T06:16:03.190Z,2.68
2023-04-07T06:18:30.962Z,2.71
2023-04-07T06:20:57.721Z,2.78
2023-04-07T06:23:25.735Z,2.86
2023-04-07T06:25:53.349Z,2.93
2023-04-07T06:28:20.906Z,3.01
2023-04-07T06:30:48.483Z,3.07
2023-04-07T06:33:15.835Z,3.08
2023-04-07T06:35:42.664Z,3.08
2023-04-07T06:38:11.512Z,3.08
2023-04-07T06:40:38.402Z,3.11
2023-04-07T06:43:06.244Z,3.13
2023-04-07T06:45:43.714Z,3.11
2023-04-07T06:48:11.132Z,3.09
2023-04-07T06:50:39.072Z,3.11
2023-04-07T06:53:06.160Z,3.15
2023-04-07T06:55:32.928Z,3.17
2023-04-07T06:57:59.661Z,3.19
2023-04-07T07:00:29.171Z,3.21
2023-04-07T07:02:56.100Z,3.23
2023-04-07T07:05:23.580Z,3.29
2023-04-07T07:07:51.965Z,3.36
2023-04-07T07:10:20.597Z,3.41
2023-04-07T07:12:47.399Z,3.43
2023-04-07T07:15:14.186Z,3.48
2023-04-07T07:17:41.610Z,3.51
2023-04-07T07:20:09.020Z,3.51
2023-04-07T07:22:36.032Z,3.55
2023-04-07T07:25:03.435Z,3.60
2023-04-07T07:27:30.297Z,3.65
2023-04-07T07:29:57.159Z,3.67
2023-04-07T07:32:23.944Z,3.64
2023-04-07T07:34:50.866Z,3.63
2023-04-07T07:37:18.019Z,3.66
2023-04-07T07:39:44.934Z,3.64
2023-04-07T07:42:11.668Z,3.60
2023-04-07T07:44:38.587Z,3.56
2023-04-07T07:47:05.620Z,3.58
2023-04-07T07:49:32.547Z,3.60
2023-04-07T07:51:59.932Z,3.68
2023-04-07T07:54:26.714Z,3.78
2023-04-07T07:56:53.468Z,3.83
2023-04-07T07:59:20.294Z,3.86
2023-04-07T08:01:47.055Z,3.90
2023-04-07T08:04:14.018Z,3.93
2023-04-07T08:06:41.900Z,3.91
2023-04-07T08:09:08.700Z,3.94
2023-04-07T08:11:35.750Z,3.93
2023-04-07T08:14:02.537Z,3.98
2023-04-07T08:16:29.281Z,4.04
2023-04-07T08:18:56.266Z,4.06
2023-04-07T08:21:23.006Z,4.07
2023-04-07T08:23:50.108Z,4.05
2023-04-07T08:26:17.270Z,4.08
2023-04-07T08:28:44.096Z,4.10
2023-04-07T08:31:11.059Z,4.10
2023-04-07T08:33:37.904Z,4.01
2023-04-07T08:36:05.072Z,3.97
2023-04-07T08:38:31.903Z,3.95
2023-04-07T08:41:04.612Z,3.88
2023-04-07T08:43:33.717Z,3.80
2023-04-07T08:46:02.405Z,3.79
2023-04-07T08:48:34.389Z,3.78
2023-04-07T08:51:06.290Z,3.81
2023-04-07T08:53:43.502Z,3.84
2023-04-07T08:56:13.662Z,3.89
2023-04-07T08:58:40.632Z,3.97
2023-04-07T09:01:09.373Z,3.97
2023-04-07T09:03:37.344Z,4.02
2023-04-07T09:06:04.638Z,4.10
2023-04-07T09:08:31.368Z,4.21
2023-04-07T09:10:58.791Z,4.28
2023-04-07T09:13:25.915Z,4.29
2023-04-07T09:15:56.428Z,4.28
2023-04-07T09:18:23.412Z,4.26
2023-04-07T09:20:58.206Z,4.25
2023-04-07T09:23:34.357Z,4.24
2023-04-07T09:26:20.264Z,4.24
2023-04-07T09:28:48.947Z,4.23
2023-04-07T09:31:16.222Z,4.24
2023-04-07T09:33:42.976Z,4.32
2023-04-07T09:36:10.625Z,4.37
2023-04-07T09:38:39.780Z,4.36
2023-04-07T09:41:08.643Z,4.37
2023-04-07T09:43:38.296Z,4.43
2023-04-07T09:46:09.083Z,4.51
2023-04-07T09:48:36.012Z,4.62
2023-04-07T09:51:18.407Z,4.70
2023-04-07T09:53:47.907Z,4.76
2023-04-07T09:56:18.116Z,4.81
2023-04-07T09:58:47.375Z,4.85
2023-04-07T10:01:17.819Z,4.86
2023-04-07T10:03:47.384Z,4.82
2023-04-07T10:06:14.734Z,4.75
2023-04-07T10:08:43.212Z,4.73
2023-04-07T10:11:11.182Z,4.68
2023-04-07T10:13:41.300Z,4.61
2023-04-07T10:16:08.526Z,4.57
2023-04-07T10:18:37.104Z,4.57
2023-04-07T10:21:07.923Z,4.52
2023-04-07T10:23:49.799Z,4.48
2023-04-07T10:26:20.129Z,4.51
2023-04-07T10:28:50.923Z,4.57
2023-04-07T10:31:18.763Z,4.59
2023-04-07T10:33:54.912Z,4.63
2023-04-07T10:36:22.422Z,4.66
2023-04-07T10:39:08.114Z,4.69
2023-04-07T10:41:36.698Z,4.62
2023-04-07T10:44:04.844Z,4.58
2023-04-07T10:46:48.871Z,4.54
2023-04-07T10:49:18.909Z,4.60
2023-04-07T10:52:14.941Z,4.64
2023-04-07T10:54:42.857Z,4.66
2023-04-07T10:57:12.266Z,4.66
2023-04-07T10:59:42.201Z,4.71
2023-04-07T11:02:24.916Z,4.79
2023-04-07T11:04:52.406Z,4.88
2023-04-07T11:07:19.959Z,4.94
2023-04-07T11:09:46.808Z,5.07
2023-04-07T11:12:31.137Z,5.20
2023-04-07T11:14:59.862Z,5.26
2023-04-07T11:17:28.254Z,5.25
2023-04-07T11:19:55.166Z,5.26
2023-04-07T11:22:29.808Z,5.28
2023-04-07T11:24:57.657Z,5.28
2023-04-07T11:27:24.707Z,5.27
2023-04-07T11:29:51.496Z,5.20
2023-04-07T11:32:26.215Z,5.19
2023-04-07T11:34:53.177Z,5.17
2023-04-07T11:37:24.626Z,5.20
2023-04-07T11:39:53.854Z,5.29
2023-04-07T11:42:38.583Z,5.37
2023-04-07T11:45:16.090Z,5.36
2023-04-07T11:47:43.309Z,5.37
2023-04-07T11:50:12.169Z,5.45
2023-04-07T11:52:42.669Z,5.49
2023-04-07T11:55:24.715Z,5.52
2023-04-07T11:57:52.203Z,5.46
2023-04-07T12:00:20.372Z,5.43
2023-04-07T12:02:47.507Z,5.42
2023-04-07T12:05:14.681Z,5.43
2023-04-07T12:07:53.399Z,5.40
2023-04-07T12:10:21.638Z,5.37
2023-04-07T12:12:49.948Z,5.37
2023-04-07T12:15:16.857Z,5.35
2023-04-07T12:17:47.704Z,5.32
2023-04-07T12:20:15.660Z,5.24
2023-04-07T12:22:42.541Z,5.25
2023-04-07T12:25:09.402Z,5.30
2023-04-07T12:27:43.440Z,5.37
2023-04-07T12:30:12.926Z,5.42
2023-04-07T12:32:40.444Z,5.42
2023-04-07T12:35:07.420Z,5.38
2023-04-07T12:37:34.158Z,5.44
2023-04-07T12:40:01.005Z,5.51
2023-04-07T12:42:28.184Z,5.58
2023-04-07T12:44:55.003Z,5.65
2023-04-07T12:47:22.169Z,5.73
2023-04-07T12:49:50.321Z,5.79
2023-04-07T12:52:17.282Z,5.84
2023-04-07T12:54:45.481Z,5.86
2023-04-07T12:57:12.608Z,5.88
2023-04-07T12:59:39.532Z,5.85
2023-04-07T13:02:06.933Z,5.80
2023-04-07T13:04:35.137Z,5.76
2023-04-07T13:07:03.179Z,5.76
2023-04-07T13:09:30.013Z,5.76
2023-04-07T13:11:57.997Z,5.78
2023-04-07T13:14:25.091Z,5.78
2023-04-07T13:16:52.222Z,5.72
2023-04-07T13:19:19.153Z,5.67
2023-04-07T13:21:47.652Z,5.66
2023-04-07T13:24:15.593Z,5.69
2023-04-07T13:26:42.433Z,5.73
2023-04-07T13:29:09.176Z,5.74
2023-04-07T13:31:35.974Z,5.72
2023-04-07T13:34:02.776Z,5.66
2023-04-07T13:36:30.060Z,5.62
2023-04-07T13:38:57.552Z,5.65
2023-04-07T13:41:24.353Z,5.67
2023-04-07T13:43:51.453Z,5.68
2023-04-07T13:46:27.341Z,5.69
2023-04-07T13:48:55.512Z,5.70
2023-04-07T13:51:22.927Z,5.66
2023-04-07T13:53:50.001Z,5.64
2023-04-07T13:56:17.229Z,5.65
2023-04-07T13:58:44.072Z,5.65
2023-04-07T14:01:11.544Z,5.67
2023-04-07T14:03:38.823Z,5.66
2023-04-07T14:06:05.908Z,5.65
2023-04-07T14:08:32.601Z,5.68
2023-04-07T14:10:59.421Z,5.68
2023-04-07T14:13:26.487Z,5.70
2023-04-07T14:15:54.107Z,5.68
2023-04-07T14:18:21.097Z,5.65
2023-04-07T14:20:47.965Z,5.59
2023-04-07T14:23:20.672Z,5.59
2023-04-07T14:25:53.666Z,5.58
2023-04-07T14:28:21.218Z,5.60
2023-04-07T14:30:49.310Z,5.65
2023-04-07T14:33:17.605Z,5.66
2023-04-07T14:35:44.490Z,5.60
2023-04-07T14:38:11.788Z,5.57
2023-04-07T14:40:38.540Z,5.56
2023-04-07T14:43:07.931Z,5.59
2023-04-07T14:45:35.934Z,5.62
2023-04-07T14:48:02.851Z,5.64
2023-04-07T14:50:32.679Z,5.64
2023-04-07T14:53:00.025Z,5.61
2023-04-07T14:55:26.985Z,5.61
2023-04-07T14:57:53.944Z,5.65
2023-04-07T15:00:20.784Z,5.64
2023-04-07T15:02:47.684Z,5.56
2023-04-07T15:05:14.641Z,5.48
2023-04-07T15:07:41.619Z,5.47
2023-04-07T15:10:08.890Z,5.48
2023-04-07T15:12:35.577Z,5.49
2023-04-07T15:15:02.400Z,5.48
2023-04-07T15:17:42.589Z,5.47
2023-04-07T15:20:10.644Z,5.43
2023-04-07T15:22:37.357Z,5.34
2023-04-07T15:25:04.474Z,5.32
2023-04-07T15:27:31.365Z,5.26
2023-04-07T15:29:58.754Z,5.23
2023-04-07T15:32:25.514Z,5.23
2023-04-07T15:34:52.235Z,5.20
2023-04-07T15:37:19.360Z,5.19
2023-04-07T15:39:46.236Z,5.21
2023-04-07T15:42:13.030Z,5.24
2023-04-07T15:44:40.008Z,5.26
2023-04-07T15:47:07.414Z,5.23
2023-04-07T15:49:37.214Z,5.18
2023-04-07T15:52:06.400Z,5.15
2023-04-07T15:54:33.287Z,5.13
2023-04-07T15:57:00.132Z,5.12
2023-04-07T15:59:29.395Z,5.10
2023-04-07T16:01:56.473Z,5.08
2023-04-07T16:04:23.388Z,5.06
2023-04-07T16:06:50.499Z,4.98
2023-04-07T16:09:18.451Z,4.89
2023-04-07T16:11:45.164Z,4.82
2023-04-07T16:14:11.935Z,4.80
2023-04-07T16:16:40.924Z,4.79
2023-04-07T16:19:07.832Z,4.82
2023-04-07T16:21:34.706Z,4.84
2023-04-07T16:24:01.521Z,4.86
2023-04-07T16:26:28.328Z,4.87
2023-04-07T16:28:55.306Z,4.88
2023-04-07T16:31:22.167Z,4.85
2023-04-07T16:33:50.989Z,4.83
2023-04-07T16:36:18.012Z,4.82
2023-04-07T16:38:45.094Z,4.82
2023-04-07T16:41:11.820Z,4.83
2023-04-07T16:43:38.840Z,4.83
2023-04-07T16:46:06.421Z,4.80
2023-04-07T16:48:33.330Z,4.75
2023-04-07T16:51:02.563Z,4.72
2023-04-07T16:53:29.289Z,4.69
2023-04-07T16:55:55.992Z,4.66
2023-04-07T16:58:22.833Z,4.69
2023-04-07T17:00:50.555Z,4.71
2023-04-07T17:03:17.566Z,4.72
2023-04-07T17:05:44.778Z,4.73
2023-04-07T17:08:11.779Z,4.75
2023-04-07T17:10:38.547Z,4.71
2023-04-07T17:13:05.622Z,4.69
2023-04-07T17:15:37.063Z,4.69
2023-04-07T17:18:04.078Z,4.69
2023-04-07T17:20:31.034Z,4.68
2023-04-07T17:22:57.799Z,4.68
2023-04-07T17:25:28.193Z,4.70
2023-04-07T17:27:55.691Z,4.72
2023-04-07T17:30:22.888Z,4.70
2023-04-07T17:32:50.894Z,4.68
2023-04-07T17:35:18.210Z,4.69
2023-04-07T17:37:45.188Z,4.67
2023-04-07T17:40:13.599Z,4.68
2023-04-07T17:42:41.938Z,4.67
2023-04-07T17:45:09.180Z,4.71
2023-04-07T17:47:36.172Z,4.71
2023-04-07T17:50:03.856Z,4.68
2023-04-07T17:52:30.943Z,4.66
2023-04-07T17:54:57.985Z,4.67
2023-04-07T17:57:24.869Z,4.68
2023-04-07T17:59:51.845Z,4.71
2023-04-07T18:02:20.072Z,4.73
2023-04-07T18:04:47.085Z,4.75
2023-04-07T18:07:14.059Z,4.77
2023-04-07T18:09:43.065Z,4.76
2023-04-07T18:12:12.229Z,4.77
2023-04-07T18:14:38.997Z,4.78
2023-04-07T18:17:06.704Z,4.78
2023-04-07T18:19:34.002Z,4.81
2023-04-07T18:22:01.096Z,4.84
2023-04-07T18:24:28.097Z,4.90
2023-04-07T18:26:57.376Z,4.90
2023-04-07T18:29:24.255Z,4.93
2023-04-07T18:31:52.203Z,4.97
2023-04-07T18:34:19.167Z,4.97
2023-04-07T18:36:48.838Z,5.00
2023-04-07T18:39:17.542Z,5.05
2023-04-07T18:41:46.447Z,5.07
2023-04-07T18:44:14.051Z,5.11
2023-04-07T18:46:41.544Z,5.14
2023-04-07T18:49:24.739Z,5.13
2023-04-07T18:51:52.784Z,5.13
2023-04-07T18:54:19.549Z,5.13
2023-04-07T18:56:46.292Z,5.16
2023-04-07T18:59:13.000Z,5.20
2023-04-07T19:01:42.523Z,5.23
2023-04-07T19:04:10.963Z,5.25
2023-04-07T19:06:37.685Z,5.26
2023-04-07T19:09:06.010Z,5.25
2023-04-07T19:11:33.076Z,5.22
2023-04-07T19:13:59.807Z,5.19
2023-04-07T19:16:26.696Z,5.15
2023-04-07T19:18:53.996Z,5.14
2023-04-07T19:21:20.794Z,5.14
2023-04-07T19:23:47.922Z,5.15
2023-04-07T19:26:15.306Z,5.18
2023-04-07T19:28:42.457Z,5.21
2023-04-07T19:31:09.646Z,5.21
2023-04-07T19:33:37.078Z,5.20
2023-04-07T19:36:20.089Z,5.15
2023-04-07T19:38:46.778Z,5.13
2023-04-07T19:41:13.533Z,5.11
2023-04-07T19:43:40.524Z,5.09
2023-04-07T19:46:09.042Z,5.08
2023-04-07T19:48:36.691Z,5.05
2023-04-07T19:51:05.445Z,5.00
2023-04-07T19:53:33.935Z,4.95
2023-04-07T19:56:03.452Z,4.91
2023-04-07T19:58:30.223Z,4.86
2023-04-07T20:00:57.064Z,4.82
2023-04-07T20:03:24.237Z,4.81
2023-04-07T20:05:52.872Z,4.81
2023-04-07T20:08:19.638Z,4.82
2023-04-07T20:10:46.377Z,4.82
2023-04-07T20:13:13.143Z,4.80
2023-04-07T20:15:40.241Z,4.78
2023-04-07T20:18:07.092Z,4.77
2023-04-07T20:20:50.229Z,4.75
2023-04-07T20:23:32.592Z,4.75
2023-04-07T20:26:14.948Z,4.74
2023-04-07T20:28:42.021Z,4.76
2023-04-07T20:31:08.893Z,4.75
2023-04-07T20:33:35.803Z,4.76
2023-04-07T20:36:02.621Z,4.74
2023-04-07T20:38:29.340Z,4.73
2023-04-07T20:40:56.820Z,4.72
2023-04-07T20:43:23.985Z,4.69
2023-04-07T20:46:06.898Z,4.67
2023-04-07T20:48:33.777Z,4.69
2023-04-07T20:51:01.458Z,4.66
2023-04-07T20:53:28.399Z,4.63
2023-04-07T20:55:56.109Z,4.56
2023-04-07T20:58:23.155Z,4.52
2023-04-07T21:00:55.713Z,4.49
2023-04-07T21:03:23.219Z,4.47
2023-04-07T21:05:50.568Z,4.46
2023-04-07T21:08:17.524Z,4.44
2023-04-07T21:10:44.221Z,4.43
2023-04-07T21:13:11.387Z,4.44
2023-04-07T21:15:38.283Z,4.40
2023-04-07T21:18:05.232Z,4.37
2023-04-07T21:20:31.986Z,4.35
2023-04-07T21:22:58.704Z,4.33
2023-04-07T21:25:25.450Z,4.32
2023-04-07T21:27:52.472Z,4.31
2023-04-07T21:30:21.223Z,4.32
2023-04-07T21:32:48.114Z,4.32
2023-04-07T21:35:14.965Z,4.31
2023-04-07T21:37:41.743Z,4.30
2023-04-07T21:40:09.047Z,4.26
2023-04-07T21:42:35.837Z,4.26
2023-04-07T21:45:02.835Z,4.28
2023-04-07T21:47:29.713Z,4.28
2023-04-07T21:49:58.004Z,4.25
2023-04-07T21:52:24.800Z,4.20
2023-04-07T21:54:51.579Z,4.16
2023-04-07T21:57:18.336Z,4.15
2023-04-07T21:59:45.546Z,4.13
2023-04-07T22:02:13.728Z,4.11
2023-04-07T22:04:40.500Z,4.11
2023-04-07T22:07:07.527Z,4.10
2023-04-07T22:09:34.238Z,4.09
2023-04-07T22:12:01.318Z,4.07
2023-04-07T22:14:28.017Z,4.05
2023-04-07T22:16:55.238Z,4.03
2023-04-07T22:19:22.264Z,4.02
2023-04-07T22:21:49.623Z,4.03
2023-04-07T22:24:16.523Z,4.03
2023-04-07T22:26:43.267Z,4.03
2023-04-07T22:29:09.995Z,4.01
2023-04-07T22:31:36.799Z,3.98
2023-04-07T22:34:03.637Z,3.96
2023-04-07T22:36:31.441Z,3.89
2023-04-07T22:38:58.153Z,3.86
2023-04-07T22:41:24.876Z,3.84
2023-04-07T22:43:51.905Z,3.83
2023-04-07T22:46:18.692Z,3.78
2023-04-07T22:48:45.493Z,3.75
2023-04-07T22:51:12.350Z,3.72
2023-04-07T22:53:39.177Z,3.67
2023-04-07T22:56:06.514Z,3.67
2023-04-07T22:58:33.284Z,3.69
2023-04-07T23:01:00.040Z,3.71
2023-04-07T23:03:27.464Z,3.74
2023-04-07T23:05:54.507Z,3.76
2023-04-07T23:08:21.278Z,3.78
2023-04-07T23:10:47.973Z,3.79
2023-04-07T23:13:15.933Z,3.80
2023-04-07T23:15:42.612Z,3.80
2023-04-07T23:18:09.384Z,3.79
2023-04-07T23:20:36.134Z,3.78
2023-04-07T23:23:03.183Z,3.75
2023-04-07T23:25:29.977Z,3.74
2023-04-07T23:27:56.748Z,3.74
2023-04-07T23:30:23.425Z,3.72
2023-04-07T23:32:51.105Z,3.71
2023-04-07T23:35:17.972Z,3.73
2023-04-07T23:37:44.813Z,3.78
2023-04-07T23:40:12.603Z,3.84
2023-04-07T23:42:39.372Z,3.87
2023-04-07T23:45:07.081Z,3.90
2023-04-07T23:47:33.814Z,3.91
2023-04-07T23:50:00.575Z,3.89
2023-04-07T23:52:28.271Z,3.88
2023-04-07T23:54:54.952Z,3.90
2023-04-07T23:57:22.197Z,3.95
2023-04-07T23:59:48.988Z,4.01
